Time;durP1;ratioP1;P1;durP2;ratioP2;P2;SDS_P1;SDS_P2;PMS_P1;PMS_P2;Temp;Humidity;BMP_temperature;BMP_pressure;BME280_temperature;BME280_humidity;BME280_pressure;Samples;Min_cycle;Max_cycle;Signal;HPM_P1;HPM_P2
2023/08/23 00:00:31;;;;;;;3.67;3.27;;;23.20;88.70;;;;;;10359976;28;20408;-66
2023/08/23 00:05:32;;;;;;;4.10;3.40;;;23.20;88.70;;;;;;10356795;28;20702;-64
2023/08/23 00:10:32;;;;;;;4.60;3.50;;;23.10;88.60;;;;;;10358336;28;20496;-65
2023/08/23 00:15:33;;;;;;;3.90;3.50;;;23.10;88.60;;;;;;10358845;28;20472;-66
2023/08/23 00:20:34;;;;;;;4.20;3.50;;;23.10;88.60;;;;;;10354537;28;20405;-64
2023/08/23 00:25:34;;;;;;;4.07;3.60;;;23.10;88.60;;;;;;10361116;28;20404;-65
2023/08/23 00:30:35;;;;;;;3.90;3.50;;;23.00;88.50;;;;;;10345648;28;20423;-66
2023/08/23 00:35:35;;;;;;;4.13;3.30;;;23.00;88.50;;;;;;10359939;28;20400;-66
2023/08/23 00:40:36;;;;;;;3.73;3.37;;;22.90;88.40;;;;;;10357653;28;20812;-66
2023/08/23 00:45:38;;;;;;;3.67;3.37;;;22.90;88.40;;;;;;10358343;28;20497;-65
2023/08/23 00:50:41;;;;;;;4.20;3.60;;;22.90;88.40;;;;;;10344715;28;20421;-65
2023/08/23 00:55:42;;;;;;;3.90;3.40;;;22.90;88.30;;;;;;10353399;28;20823;-65
2023/08/23 01:00:43;;;;;;;3.80;3.40;;;22.80;88.20;;;;;;10343934;28;20411;-65
2023/08/23 01:05:49;;;;;;;4.68;3.72;;;22.80;88.30;;;;;;10357806;28;20405;-66
2023/08/23 01:10:52;;;;;;;3.88;3.40;;;22.80;88.20;;;;;;10352831;28;20495;-66
2023/08/23 01:15:56;;;;;;;3.50;3.20;;;22.70;88.10;;;;;;10337598;28;20718;-65
2023/08/23 01:21:00;;;;;;;4.73;3.47;;;22.70;88.20;;;;;;10354521;28;20955;-64
2023/08/23 01:26:01;;;;;;;4.47;3.65;;;22.70;88.20;;;;;;10339150;28;20405;-65
2023/08/23 01:31:06;;;;;;;4.20;3.60;;;22.70;88.20;;;;;;10352619;28;20406;-66
2023/08/23 01:36:15;;;;;;;4.37;3.50;;;22.60;88.10;;;;;;10354869;28;20403;-65
2023/08/23 01:41:17;;;;;;;3.83;3.40;;;22.60;88.10;;;;;;10354958;28;20447;-65
2023/08/23 01:46:17;;;;;;;3.95;3.40;;;22.50;88.00;;;;;;10355891;28;20819;-65
2023/08/23 01:51:18;;;;;;;3.87;3.20;;;22.60;88.10;;;;;;10357033;28;20447;-64
2023/08/23 01:56:18;;;;;;;4.17;3.33;;;22.50;88.00;;;;;;10353717;28;20392;-65
2023/08/23 02:01:19;;;;;;;4.27;3.50;;;22.50;88.00;;;;;;10363616;28;20481;-65
2023/08/23 02:06:22;;;;;;;4.53;3.78;;;22.50;88.10;;;;;;10357477;28;20428;-64
2023/08/23 02:11:22;;;;;;;5.13;3.83;;;22.40;88.10;;;;;;10361368;28;20508;-66
2023/08/23 02:16:24;;;;;;;4.33;3.50;;;22.40;88.10;;;;;;10361315;28;20408;-64
2023/08/23 02:21:29;;;;;;;4.05;3.40;;;22.40;88.10;;;;;;10363317;28;20831;-64
2023/08/23 02:26:30;;;;;;;5.55;3.78;;;22.30;88.10;;;;;;10355707;28;20467;-66
2023/08/23 02:31:31;;;;;;;4.70;3.90;;;22.30;88.20;;;;;;10359061;28;20789;-64
2023/08/23 02:36:31;;;;;;;4.07;3.50;;;22.30;88.20;;;;;;10358973;28;20455;-64
2023/08/23 02:41:32;;;;;;;4.17;3.60;;;22.20;88.20;;;;;;10358148;28;20431;-66
2023/08/23 02:46:33;;;;;;;4.20;3.80;;;22.20;88.20;;;;;;10360512;28;20459;-64
2023/08/23 02:51:33;;;;;;;4.23;3.60;;;22.20;88.30;;;;;;10361711;28;20416;-63
2023/08/23 02:56:34;;;;;;;3.83;3.43;;;22.20;88.30;;;;;;10361758;28;20768;-66
2023/08/23 03:01:35;;;;;;;4.00;3.50;;;22.20;88.30;;;;;;10359527;28;20435;-65
2023/08/23 03:06:35;;;;;;;4.00;3.37;;;22.10;88.20;;;;;;10358709;28;20400;-65
2023/08/23 03:11:36;;;;;;;3.90;3.50;;;22.10;88.30;;;;;;10362145;28;20951;-65
2023/08/23 03:16:37;;;;;;;4.10;3.47;;;22.10;88.20;;;;;;10364950;28;20480;-66
2023/08/23 03:21:37;;;;;;;3.90;3.20;;;22.10;88.30;;;;;;10361848;28;20409;-66
2023/08/23 03:26:38;;;;;;;3.40;3.10;;;22.00;88.20;;;;;;10351802;28;20496;-65
2023/08/23 03:31:38;;;;;;;4.40;3.47;;;22.00;88.20;;;;;;10365646;28;20466;-65
2023/08/23 03:36:39;;;;;;;4.00;3.20;;;22.00;88.20;;;;;;10348538;28;20811;-64
2023/08/23 03:41:40;;;;;;;3.80;3.40;;;21.90;88.00;;;;;;10367146;28;20408;-65
2023/08/23 03:46:40;;;;;;;3.90;3.50;;;22.00;88.10;;;;;;10352143;28;20401;-64
2023/08/23 03:51:41;;;;;;;4.23;3.20;;;21.90;88.00;;;;;;10365170;28;20504;-66
2023/08/23 03:56:41;;;;;;;3.37;3.07;;;21.90;88.00;;;;;;10363367;28;20748;-65
2023/08/23 04:01:43;;;;;;;3.73;3.33;;;21.90;88.20;;;;;;10345870;28;20416;-66
2023/08/23 04:06:43;;;;;;;3.90;3.40;;;21.80;88.10;;;;;;10360311;28;20407;-65
2023/08/23 04:11:44;;;;;;;3.53;3.22;;;21.80;88.10;;;;;;10353135;28;20415;-65
2023/08/23 04:16:45;;;;;;;3.97;3.10;;;21.80;88.30;;;;;;10342758;28;20443;-65
2023/08/23 04:21:46;;;;;;;4.03;3.27;;;21.80;88.20;;;;;;10353124;28;21127;-64
2023/08/23 04:26:47;;;;;;;3.53;3.17;;;21.70;88.30;;;;;;10358423;28;20480;-66
2023/08/23 04:31:48;;;;;;;3.50;3.20;;;21.70;88.30;;;;;;10358760;28;20417;-65
2023/08/23 04:36:48;;;;;;;3.37;3.07;;;21.70;88.40;;;;;;10359601;28;20451;-66
2023/08/23 04:41:49;;;;;;;4.50;3.60;;;21.70;88.40;;;;;;10363188;28;20400;-64
2023/08/23 04:46:49;;;;;;;4.80;3.27;;;21.70;89.20;;;;;;10358548;28;20404;-66
2023/08/23 04:51:50;;;;;;;4.67;3.00;;;21.60;88.90;;;;;;10343451;28;20963;-66
2023/08/23 04:56:51;;;;;;;3.57;3.03;;;21.60;88.90;;;;;;10362514;28;20749;-65
2023/08/23 05:01:51;;;;;;;3.50;2.97;;;21.60;88.90;;;;;;10360596;28;20409;-66
2023/08/23 05:06:52;;;;;;;4.10;3.00;;;21.50;88.80;;;;;;10360584;28;20404;-65
2023/08/23 05:11:52;;;;;;;3.50;3.10;;;21.60;88.90;;;;;;10358272;28;20420;-65
2023/08/23 05:16:53;;;;;;;4.22;2.97;;;21.50;88.90;;;;;;10355204;28;20407;-66
2023/08/23 05:21:54;;;;;;;4.05;3.10;;;21.60;88.90;;;;;;10360203;28;20425;-65
2023/08/23 05:26:54;;;;;;;4.47;3.20;;;21.50;88.90;;;;;;10358282;28;20825;-64
2023/08/23 05:31:55;;;;;;;3.20;2.90;;;21.50;88.90;;;;;;10358894;28;20412;-66
2023/08/23 05:36:55;;;;;;;4.50;3.00;;;21.50;88.90;;;;;;10369495;28;20433;-65
2023/08/23 05:41:56;;;;;;;3.47;2.77;;;21.50;88.90;;;;;;10367442;28;20408;-64
2023/08/23 05:46:57;;;;;;;3.77;2.90;;;21.50;89.00;;;;;;10368587;28;20933;-65
2023/08/23 05:51:57;;;;;;;3.20;2.57;;;21.40;89.00;;;;;;10365282;28;20424;-65
2023/08/23 05:56:59;;;;;;;3.00;2.67;;;21.40;89.00;;;;;;10366420;28;20438;-66
2023/08/23 06:02:00;;;;;;;3.20;2.50;;;21.50;89.00;;;;;;10353064;28;20826;-65
2023/08/23 06:07:01;;;;;;;4.97;3.10;;;21.40;89.00;;;;;;10362251;28;20413;-66
2023/08/23 06:12:01;;;;;;;3.00;2.70;;;21.50;89.20;;;;;;10364799;28;20412;-65
2023/08/23 06:17:02;;;;;;;4.23;2.80;;;21.50;89.20;;;;;;10365971;28;20875;-66
2023/08/23 06:22:02;;;;;;;4.03;2.80;;;21.50;89.20;;;;;;10361924;28;20422;-64
2023/08/23 06:27:03;;;;;;;3.83;2.83;;;21.40;89.90;;;;;;10366787;28;20394;-64
2023/08/23 06:32:04;;;;;;;3.10;2.65;;;21.40;89.40;;;;;;10350498;28;20411;-65
2023/08/23 06:37:05;;;;;;;3.35;2.88;;;21.50;89.60;;;;;;10363804;28;20409;-66
2023/08/23 06:42:05;;;;;;;3.75;2.85;;;21.40;89.50;;;;;;10363883;28;20543;-65
2023/08/23 06:47:06;;;;;;;4.00;2.83;;;21.40;89.70;;;;;;10363292;28;20455;-64
2023/08/23 06:52:07;;;;;;;3.17;2.88;;;21.40;89.80;;;;;;10362319;28;20420;-65
2023/08/23 06:57:07;;;;;;;3.00;2.70;;;21.40;90.20;;;;;;10362829;28;20684;-65
2023/08/23 07:02:10;;;;;;;3.42;2.72;;;21.40;90.00;;;;;;10350736;28;20405;-65
2023/08/23 07:07:10;;;;;;;3.20;2.80;;;21.50;90.00;;;;;;10363323;28;20405;-65
2023/08/23 07:12:11;;;;;;;3.73;3.00;;;21.50;90.00;;;;;;10366403;28;20938;-66
2023/08/23 07:17:11;;;;;;;3.27;2.97;;;21.50;90.10;;;;;;10355522;28;20406;-65
2023/08/23 07:22:13;;;;;;;4.13;2.83;;;21.50;90.00;;;;;;10371445;28;20429;-64
2023/08/23 07:27:14;;;;;;;4.60;2.93;;;21.50;90.10;;;;;;10370729;28;20489;-65
2023/08/23 07:32:15;;;;;;;4.27;3.10;;;21.50;90.10;;;;;;10370279;28;20410;-63
2023/08/23 07:37:17;;;;;;;4.43;3.00;;;21.60;90.30;;;;;;10368409;28;20399;-65
2023/08/23 07:42:17;;;;;;;3.55;2.97;;;21.60;90.30;;;;;;10347474;28;20887;-64
2023/08/23 07:47:18;;;;;;;3.30;3.00;;;21.60;90.30;;;;;;10372058;28;20478;-66
2023/08/23 07:52:19;;;;;;;3.53;2.90;;;21.60;90.30;;;;;;10370430;28;20809;-64
2023/08/23 07:57:19;;;;;;;3.05;2.75;;;21.60;90.20;;;;;;10363346;28;20877;-66
2023/08/23 08:02:20;;;;;;;3.20;2.90;;;21.70;90.20;;;;;;10361769;28;20949;-66
2023/08/23 08:07:21;;;;;;;3.88;3.20;;;21.70;90.20;;;;;;10364460;28;20588;-63
2023/08/23 08:12:22;;;;;;;3.97;3.10;;;21.70;90.20;;;;;;10365734;28;20472;-65
2023/08/23 08:17:22;;;;;;;4.07;3.20;;;21.70;90.30;;;;;;10355442;28;20404;-65
2023/08/23 08:22:23;;;;;;;3.87;3.37;;;21.80;90.30;;;;;;10365213;28;20491;-64
2023/08/23 08:27:24;;;;;;;3.70;3.20;;;21.80;90.30;;;;;;10360401;28;20497;-65
2023/08/23 08:32:25;;;;;;;3.87;3.43;;;21.80;90.30;;;;;;10364475;28;20502;-66
2023/08/23 08:37:26;;;;;;;4.20;3.50;;;21.90;90.40;;;;;;10361990;28;20899;-66
2023/08/23 08:42:29;;;;;;;4.33;3.43;;;21.90;90.40;;;;;;10362390;28;20512;-63
2023/08/23 08:47:29;;;;;;;5.28;3.83;;;21.90;90.40;;;;;;10365982;28;20407;-63
2023/08/23 08:52:30;;;;;;;4.73;3.57;;;22.00;90.40;;;;;;10360603;28;20419;-65
2023/08/23 08:57:32;;;;;;;3.93;3.50;;;22.00;90.40;;;;;;10346315;28;20461;-65
2023/08/23 09:02:34;;;;;;;4.20;3.70;;;22.10;90.40;;;;;;10359644;28;20410;-65
2023/08/23 09:07:37;;;;;;;4.70;3.63;;;22.10;90.40;;;;;;10362709;28;20943;-64
2023/08/23 09:12:37;;;;;;;5.50;3.95;;;22.10;90.40;;;;;;10363444;28;20466;-64
2023/08/23 09:17:38;;;;;;;5.40;3.80;;;22.20;90.40;;;;;;10361683;28;20518;-66
2023/08/23 09:22:38;;;;;;;6.18;4.15;;;22.20;90.50;;;;;;10359588;28;20932;-66
2023/08/23 09:27:39;;;;;;;5.07;3.77;;;22.20;90.50;;;;;;10356081;28;20402;-65
2023/08/23 09:32:43;;;;;;;5.38;3.92;;;22.30;90.50;;;;;;10355317;28;20442;-66
2023/08/23 09:37:46;;;;;;;5.93;3.97;;;22.30;90.50;;;;;;10358476;28;20479;-65
2023/08/23 09:42:48;;;;;;;3.90;3.50;;;22.40;90.50;;;;;;10364564;28;20543;-65
2023/08/23 09:47:58;;;;;;;5.57;4.20;;;22.40;90.50;;;;;;10359455;28;20499;-64
2023/08/23 09:53:10;;;;;;;5.68;3.90;;;22.50;90.50;;;;;;10363173;28;20447;-66
2023/08/23 09:58:11;;;;;;;6.68;4.28;;;22.50;90.40;;;;;;10358949;28;20396;-65
2023/08/23 10:03:12;;;;;;;4.93;3.95;;;22.50;90.50;;;;;;10360761;28;20424;-65
2023/08/23 10:08:14;;;;;;;5.45;3.90;;;22.60;90.50;;;;;;10361119;28;20866;-66
2023/08/23 10:13:15;;;;;;;5.82;4.18;;;22.60;90.40;;;;;;10360381;28;20908;-66
2023/08/23 10:18:16;;;;;;;4.80;4.20;;;22.70;90.50;;;;;;10348527;28;20404;-65
2023/08/23 10:23:18;;;;;;;5.88;3.90;;;22.70;90.40;;;;;;10350572;28;20969;-65
2023/08/23 10:28:19;;;;;;;4.57;4.00;;;22.80;90.40;;;;;;10365849;28;20411;-66
2023/08/23 10:33:20;;;;;;;5.07;3.60;;;23.00;90.70;;;;;;10355226;28;20471;-65
2023/08/23 10:38:21;;;;;;;4.75;4.07;;;22.90;90.40;;;;;;10364282;28;20401;-66
2023/08/23 10:43:22;;;;;;;5.40;4.07;;;22.90;90.30;;;;;;10367061;28;20415;-66
2023/08/23 10:48:23;;;;;;;5.37;4.00;;;22.60;90.20;;;;;;10348479;28;20403;-65
2023/08/23 10:53:24;;;;;;;5.10;4.15;;;23.10;90.30;;;;;;10360743;28;20409;-64
2023/08/23 10:58:25;;;;;;;5.28;3.67;;;23.10;90.30;;;;;;10361725;28;20409;-66
2023/08/23 11:03:28;;;;;;;4.40;4.00;;;23.20;90.30;;;;;;10363895;28;20559;-64
2023/08/23 11:08:30;;;;;;;5.47;3.83;;;23.20;90.20;;;;;;10364290;28;21099;-65
2023/08/23 11:13:30;;;;;;;5.60;3.65;;;23.30;90.10;;;;;;10364276;28;20421;-66
2023/08/23 11:18:31;;;;;;;4.90;3.80;;;23.30;90.10;;;;;;10362249;28;20917;-66
2023/08/23 11:23:37;;;;;;;4.37;3.57;;;23.40;90.30;;;;;;10363115;28;20411;-66
2023/08/23 11:28:38;;;;;;;4.32;3.88;;;23.50;90.10;;;;;;10362924;28;20495;-66
2023/08/23 11:33:38;;;;;;;6.13;3.67;;;23.50;90.00;;;;;;10364258;28;20515;-65
2023/08/23 11:38:40;;;;;;;3.90;3.50;;;23.60;90.00;;;;;;10362008;28;20408;-65
2023/08/23 11:43:44;;;;;;;3.72;3.42;;;23.70;90.00;;;;;;10347818;28;20416;-64
2023/08/23 11:48:45;;;;;;;4.83;3.70;;;23.70;90.30;;;;;;10361283;28;20766;-65
2023/08/23 11:53:56;;;;;;;4.03;3.60;;;23.80;90.00;;;;;;10361750;28;20431;-65
2023/08/23 11:58:57;;;;;;;4.63;3.60;;;23.80;90.00;;;;;;10360068;28;20409;-65
2023/08/23 12:03:58;;;;;;;5.68;3.45;;;24.00;89.80;;;;;;10363245;28;20401;-66
2023/08/23 12:08:58;;;;;;;3.65;3.10;;;24.00;89.60;;;;;;10337197;28;20939;-66
2023/08/23 12:14:06;;;;;;;4.03;3.30;;;24.10;89.40;;;;;;10361343;28;20439;-65
2023/08/23 12:19:06;;;;;;;3.97;3.50;;;24.20;89.20;;;;;;10360459;28;20903;-65
2023/08/23 12:24:07;;;;;;;4.30;3.20;;;24.20;89.20;;;;;;10359636;28;20700;-67
2023/08/23 12:29:07;;;;;;;5.33;3.10;;;23.50;88.50;;;;;;10360959;28;20425;-66
2023/08/23 12:34:08;;;;;;;3.70;3.40;;;24.30;88.90;;;;;;10360456;28;20459;-66
2023/08/23 12:39:09;;;;;;;3.93;3.30;;;24.40;88.80;;;;;;10361357;28;20412;-65
2023/08/23 12:44:10;;;;;;;5.07;3.60;;;24.50;89.30;;;;;;10354073;28;20400;-67
2023/08/23 12:49:13;;;;;;;4.30;3.42;;;24.50;89.30;;;;;;10359410;28;20424;-67
2023/08/23 12:54:14;;;;;;;5.50;3.23;;;24.60;88.60;;;;;;10358391;28;20839;-67
2023/08/23 12:59:15;;;;;;;7.20;4.00;;;24.50;89.00;;;;;;10359238;28;20462;-66
2023/08/23 13:04:15;;;;;;;4.57;3.70;;;24.60;88.90;;;;;;10355378;28;20415;-66
2023/08/23 13:09:16;;;;;;;4.53;3.63;;;24.60;89.00;;;;;;10347076;28;20439;-67
2023/08/23 13:14:17;;;;;;;5.13;3.63;;;24.60;89.00;;;;;;10357254;28;20940;-65
2023/08/23 13:19:17;;;;;;;4.57;3.40;;;24.70;89.30;;;;;;10357036;28;20404;-66
2023/08/23 13:24:22;;;;;;;3.80;3.40;;;24.70;88.80;;;;;;10356583;28;20412;-67
2023/08/23 13:29:23;;;;;;;3.80;3.40;;;24.80;88.70;;;;;;10351294;28;20426;-66
2023/08/23 13:34:23;;;;;;;4.90;3.47;;;24.90;88.70;;;;;;10363278;28;20891;-66
2023/08/23 13:39:24;;;;;;;5.67;3.50;;;24.90;88.90;;;;;;10350344;28;20550;-67
2023/08/23 13:44:25;;;;;;;3.40;3.10;;;25.00;88.80;;;;;;10358357;28;20492;-66
2023/08/23 13:49:26;;;;;;;4.90;3.43;;;25.00;89.10;;;;;;10342751;28;20467;-67
2023/08/23 13:54:26;;;;;;;3.97;3.28;;;25.10;89.30;;;;;;10365168;28;20424;-66
2023/08/23 13:59:27;;;;;;;4.20;3.42;;;25.20;89.20;;;;;;10367799;28;20393;-66
2023/08/23 14:04:27;;;;;;;4.63;3.43;;;25.20;88.80;;;;;;10365604;28;20444;-66
2023/08/23 14:09:28;;;;;;;4.43;3.40;;;25.30;88.90;;;;;;10365432;28;20448;-66
2023/08/23 14:14:28;;;;;;;3.95;3.55;;;25.40;88.60;;;;;;10368540;28;20431;-65
2023/08/23 14:19:31;;;;;;;4.33;3.50;;;25.40;88.10;;;;;;10363460;28;20428;-67
2023/08/23 14:24:32;;;;;;;3.75;3.33;;;25.60;88.20;;;;;;10364719;28;20500;-66
2023/08/23 14:29:32;;;;;;;3.33;3.03;;;25.60;87.70;;;;;;10372800;28;20754;-66
2023/08/23 14:34:34;;;;;;;3.53;3.20;;;25.70;87.40;;;;;;10368039;28;20401;-66
2023/08/23 14:39:35;;;;;;;3.90;3.50;;;25.80;87.50;;;;;;10366255;28;20415;-66
2023/08/23 14:44:36;;;;;;;4.28;3.30;;;25.90;87.10;;;;;;10367619;28;20435;-64
2023/08/23 14:49:36;;;;;;;3.40;3.10;;;26.00;87.10;;;;;;10354178;28;20435;-66
2023/08/23 14:54:37;;;;;;;4.40;3.13;;;26.10;87.20;;;;;;10368516;28;20813;-67
2023/08/23 14:59:40;;;;;;;4.53;3.30;;;26.10;87.00;;;;;;10373714;28;20401;-66
2023/08/23 15:04:47;;;;;;;3.78;3.38;;;26.20;86.80;;;;;;10364884;28;21080;-67
2023/08/23 15:09:49;;;;;;;5.03;3.35;;;26.30;86.70;;;;;;10359932;28;20471;-65
2023/08/23 15:14:49;;;;;;;3.95;3.40;;;26.40;86.70;;;;;;10344666;28;20411;-71
2023/08/23 15:19:50;;;;;;;3.85;3.15;;;26.50;86.70;;;;;;10347654;28;20919;-67
2023/08/23 15:24:51;;;;;;;4.63;3.40;;;26.50;86.50;;;;;;10361850;28;20412;-67
2023/08/23 15:29:51;;;;;;;4.70;3.50;;;26.60;86.10;;;;;;10366368;28;20413;-68
2023/08/23 15:34:53;;;;;;;4.43;3.33;;;26.70;86.00;;;;;;10363752;28;20467;-66
2023/08/23 15:39:55;;;;;;;4.53;3.33;;;26.80;85.60;;;;;;10365696;28;20503;-70
2023/08/23 15:44:55;;;;;;;8.82;4.25;;;26.80;85.70;;;;;;10362855;28;20435;-69
2023/08/23 15:49:56;;;;;;;8.43;3.78;;;26.70;82.80;;;;;;10361374;28;20427;-70
2023/08/23 15:54:59;;;;;;;9.63;5.33;;;26.70;81.90;;;;;;10344088;28;20486;-69
2023/08/23 15:59:59;;;;;;;8.23;4.50;;;26.50;82.60;;;;;;10362071;28;20821;-67
2023/08/23 16:05:00;;;;;;;8.23;4.40;;;26.10;84.20;;;;;;10361310;28;20424;-68
2023/08/23 16:10:01;;;;;;;7.03;3.50;;;26.00;84.50;;;;;;10358587;28;20804;-69
2023/08/23 16:15:02;;;;;;;6.87;3.37;;;25.90;85.30;;;;;;10362180;28;20768;-69
2023/08/23 16:20:03;;;;;;;6.22;2.67;;;25.70;85.40;;;;;;10360907;28;20404;-67
2023/08/23 16:25:04;;;;;;;5.57;2.70;;;25.60;85.70;;;;;;10361735;28;20423;-68
2023/08/23 16:30:06;;;;;;;3.83;2.30;;;25.50;85.10;;;;;;10346756;28;20833;-67
2023/08/23 16:35:07;;;;;;;6.40;2.05;;;25.40;84.60;;;;;;10360256;28;20948;-68
2023/08/23 16:40:09;;;;;;;6.20;2.38;;;25.40;85.10;;;;;;10359650;28;20417;-69
2023/08/23 16:45:10;;;;;;;5.20;2.20;;;25.30;84.60;;;;;;10361023;28;20419;-67
2023/08/23 16:50:11;;;;;;;4.47;1.90;;;25.20;84.70;;;;;;10360343;28;20416;-68
2023/08/23 16:55:11;;;;;;;3.83;1.80;;;25.10;84.50;;;;;;10359166;28;20397;-70
2023/08/23 17:00:13;;;;;;;3.83;1.80;;;25.00;84.80;;;;;;10350663;28;20405;-70
2023/08/23 17:05:14;;;;;;;3.83;1.73;;;25.00;84.70;;;;;;10360373;28;20413;-71
2023/08/23 17:10:14;;;;;;;5.30;1.73;;;25.00;84.30;;;;;;10359398;28;20459;-68
2023/08/23 17:15:15;;;;;;;4.70;1.77;;;24.90;83.70;;;;;;10359008;28;20427;-69
2023/08/23 17:20:16;;;;;;;3.08;1.45;;;24.80;83.20;;;;;;10358682;28;20467;-69
2023/08/23 17:25:17;;;;;;;3.28;1.58;;;24.70;83.10;;;;;;10358226;28;20420;-70
2023/08/23 17:30:18;;;;;;;4.18;1.60;;;24.60;84.00;;;;;;10360454;28;20780;-69
2023/08/23 17:35:18;;;;;;;4.25;1.60;;;24.60;83.90;;;;;;10372667;28;20409;-70
2023/08/23 17:40:19;;;;;;;3.20;1.80;;;24.60;83.80;;;;;;10375722;28;20412;-69
2023/08/23 17:45:20;;;;;;;6.33;1.63;;;24.60;83.50;;;;;;10369971;28;20409;-70
2023/08/23 17:50:20;;;;;;;4.20;1.70;;;24.50;83.70;;;;;;10371849;28;20424;-70
2023/08/23 17:55:21;;;;;;;3.60;1.70;;;24.50;83.90;;;;;;10367497;28;20448;-69
2023/08/23 18:00:22;;;;;;;3.60;1.77;;;24.40;84.20;;;;;;10364185;28;20427;-69
2023/08/23 18:05:25;;;;;;;3.83;1.65;;;24.30;84.30;;;;;;10356888;28;20399;-69
2023/08/23 18:10:25;;;;;;;3.42;1.75;;;24.30;84.60;;;;;;10365157;28;20439;-69
2023/08/23 18:15:26;;;;;;;3.90;2.37;;;24.30;84.80;;;;;;10364233;28;20554;-69
2023/08/23 18:20:26;;;;;;;3.50;2.10;;;24.30;84.80;;;;;;10371338;28;20405;-68
2023/08/23 18:25:27;;;;;;;3.67;1.70;;;24.20;84.50;;;;;;10368580;28;20758;-68
2023/08/23 18:30:30;;;;;;;3.80;1.77;;;24.10;84.70;;;;;;10371173;28;20417;-69
2023/08/23 18:35:31;;;;;;;5.37;1.87;;;24.00;84.80;;;;;;10360697;28;20413;-69
2023/08/23 18:40:31;;;;;;;4.82;1.80;;;23.70;85.40;;;;;;10345046;28;20409;-68
2023/08/23 18:45:32;;;;;;;3.27;1.53;;;23.60;86.00;;;;;;10354683;28;20411;-67
2023/08/23 18:50:33;;;;;;;3.43;1.50;;;23.80;86.10;;;;;;10359617;28;20435;-67
2023/08/23 18:55:33;;;;;;;4.47;1.50;;;24.00;85.90;;;;;;10339327;28;20900;-68
2023/08/23 19:00:34;;;;;;;5.00;1.60;;;24.10;85.60;;;;;;10351545;28;20435;-67
2023/08/23 19:05:34;;;;;;;3.93;1.60;;;24.20;85.40;;;;;;10358976;28;20419;-68
2023/08/23 19:10:38;;;;;;;3.45;1.40;;;25.20;85.90;;;;;;10353714;28;20432;-67
2023/08/23 19:15:39;;;;;;;2.60;1.30;;;24.40;85.30;;;;;;10361006;28;20425;-67
2023/08/23 19:20:39;;;;;;;2.63;1.53;;;24.40;85.30;;;;;;10356047;28;20502;-68
2023/08/23 19:25:40;;;;;;;1.87;1.40;;;24.50;85.40;;;;;;10361191;28;20816;-68
2023/08/23 19:30:41;;;;;;;3.57;1.67;;;24.50;85.40;;;;;;10359284;28;20412;-67
2023/08/23 19:35:46;;;;;;;2.73;1.50;;;24.50;85.30;;;;;;10356643;28;20439;-67
2023/08/23 19:40:47;;;;;;;3.17;1.52;;;24.50;85.30;;;;;;10351059;28;20453;-66
2023/08/23 19:45:47;;;;;;;1.90;1.30;;;24.50;85.90;;;;;;10355422;28;20975;-64
2023/08/23 19:50:48;;;;;;;2.25;1.50;;;24.50;85.40;;;;;;10346835;28;20455;-65
2023/08/23 19:55:49;;;;;;;2.63;1.50;;;24.50;85.40;;;;;;10337088;28;20978;-66
2023/08/23 20:00:49;;;;;;;2.13;1.50;;;24.50;85.40;;;;;;10354013;28;20795;-66
2023/08/23 20:05:50;;;;;;;3.30;1.80;;;24.50;85.30;;;;;;10357426;28;20985;-66
2023/08/23 20:10:51;;;;;;;2.22;1.45;;;24.50;85.40;;;;;;10340239;28;20420;-65
2023/08/23 20:15:52;;;;;;;2.00;1.50;;;24.50;85.40;;;;;;10355807;28;20828;-66
2023/08/23 20:20:53;;;;;;;2.77;1.63;;;23.50;84.90;;;;;;10351453;28;20450;-65
2023/08/23 20:25:54;;;;;;;2.20;1.60;;;24.50;85.50;;;;;;10358836;28;20412;-65
2023/08/23 20:30:56;;;;;;;2.30;1.53;;;24.40;85.50;;;;;;10342784;28;21042;-64
2023/08/23 20:35:57;;;;;;;1.97;1.70;;;24.40;85.50;;;;;;10354469;28;20860;-65
2023/08/23 20:41:03;;;;;;;3.37;1.90;;;24.40;85.60;;;;;;10354344;28;20612;-66
2023/08/23 20:46:04;;;;;;;1.93;1.60;;;24.40;85.60;;;;;;10354660;28;20400;-65
2023/08/23 20:51:04;;;;;;;3.90;1.60;;;24.40;85.60;;;;;;10354153;28;20443;-65
2023/08/23 20:56:05;;;;;;;2.40;1.70;;;24.30;85.60;;;;;;10353574;28;20455;-65
2023/08/23 21:01:06;;;;;;;2.83;1.80;;;24.30;85.90;;;;;;10357483;28;20396;-66
2023/08/23 21:06:06;;;;;;;2.13;1.75;;;24.30;85.70;;;;;;10354166;28;20405;-65
2023/08/23 21:11:07;;;;;;;2.43;1.70;;;24.20;85.70;;;;;;10355528;28;20947;-65
2023/08/23 21:16:08;;;;;;;2.73;1.80;;;24.20;85.70;;;;;;10352559;28;20451;-65
2023/08/23 21:21:08;;;;;;;3.30;2.00;;;24.20;85.90;;;;;;10350410;28;20511;-65
2023/08/23 21:26:09;;;;;;;3.80;2.10;;;24.20;85.90;;;;;;10339928;28;20421;-66
2023/08/23 21:31:10;;;;;;;2.67;1.97;;;24.10;85.90;;;;;;10352267;28;20412;-65
2023/08/23 21:36:12;;;;;;;2.35;1.98;;;24.10;86.00;;;;;;10356482;28;20424;-66
2023/08/23 21:41:12;;;;;;;2.57;1.80;;;24.10;86.00;;;;;;10353243;28;20737;-63
2023/08/23 21:46:13;;;;;;;2.22;2.03;;;24.10;86.00;;;;;;10353363;28;20407;-64
2023/08/23 21:51:14;;;;;;;2.10;1.90;;;24.00;85.90;;;;;;10349374;28;20416;-65
2023/08/23 21:56:14;;;;;;;2.87;2.10;;;24.00;86.00;;;;;;10330208;28;20404;-65
2023/08/23 22:01:15;;;;;;;3.87;2.30;;;24.00;86.20;;;;;;10349376;28;20409;-65
2023/08/23 22:06:16;;;;;;;3.20;2.33;;;23.90;86.10;;;;;;10348238;28;20926;-65
2023/08/23 22:11:19;;;;;;;3.10;2.30;;;23.90;86.00;;;;;;10348342;28;20466;-64
2023/08/23 22:16:19;;;;;;;3.20;2.35;;;23.70;85.90;;;;;;10352132;28;20476;-66
2023/08/23 22:21:20;;;;;;;3.87;2.40;;;23.90;86.40;;;;;;10360013;28;20458;-65
2023/08/23 22:26:21;;;;;;;2.95;2.35;;;23.80;86.00;;;;;;10360382;28;20956;-66
2023/08/23 22:31:22;;;;;;;2.22;2.00;;;23.80;86.10;;;;;;10358409;28;20453;-65
2023/08/23 22:36:22;;;;;;;2.95;2.40;;;23.80;86.20;;;;;;10351977;28;20823;-65
2023/08/23 22:41:23;;;;;;;4.40;2.40;;;23.70;86.20;;;;;;10357527;28;20408;-65
2023/08/23 22:46:24;;;;;;;3.75;2.42;;;23.70;86.30;;;;;;10351709;28;20507;-65
2023/08/23 22:51:25;;;;;;;3.13;2.28;;;23.60;86.30;;;;;;10356639;28;20408;-63
2023/08/23 22:56:25;;;;;;;3.22;2.25;;;23.60;86.30;;;;;;10356514;28;20412;-65
2023/08/23 23:01:28;;;;;;;3.10;2.13;;;23.60;86.30;;;;;;10357069;28;20401;-64
2023/08/23 23:06:28;;;;;;;2.75;2.20;;;23.60;86.40;;;;;;10358602;28;20773;-65
2023/08/23 23:11:29;;;;;;;2.78;2.17;;;23.50;86.30;;;;;;10357379;28;20412;-65
2023/08/23 23:16:31;;;;;;;2.30;2.00;;;23.50;86.30;;;;;;10343621;28;20423;-65
2023/08/23 23:21:32;;;;;;;2.67;2.10;;;23.50;86.30;;;;;;10358581;28;20895;-64
2023/08/23 23:26:37;;;;;;;2.30;2.10;;;23.40;86.20;;;;;;10355987;28;20412;-64
2023/08/23 23:31:38;;;;;;;3.72;2.25;;;23.40;86.20;;;;;;10341799;28;20413;-65
2023/08/23 23:36:38;;;;;;;2.70;2.20;;;23.40;86.20;;;;;;10342012;28;20396;-65
2023/08/23 23:41:39;;;;;;;3.33;2.00;;;23.30;86.20;;;;;;10358356;28;20900;-65
2023/08/23 23:46:40;;;;;;;3.10;2.30;;;23.30;86.20;;;;;;10344280;28;20487;-66
2023/08/23 23:51:40;;;;;;;2.90;2.28;;;23.30;86.40;;;;;;10361351;28;20420;-65
2023/08/23 23:56:41;;;;;;;3.57;2.30;;;23.20;86.30;;;;;;10368242;28;20407;-66
